Time;durP1;ratioP1;P1;durP2;ratioP2;P2;SDS_P1;SDS_P2;PMS_P1;PMS_P2;Temp;Humidity;BMP_temperature;BMP_pressure;BME280_temperature;BME280_humidity;BME280_pressure;Samples;Min_cycle;Max_cycle;Signal;HPM_P1;HPM_P2
2022/07/27 00:00:14;;;;;;;2.80;1.15;;;18.50;96.40;;;;;;2127283;27;20478;-69
2022/07/27 00:01:16;;;;;;;2.58;0.93;;;18.50;96.30;;;;;;2127634;27;20034;-69
2022/07/27 00:02:17;;;;;;;4.82;1.33;;;18.50;96.20;;;;;;2129270;27;20023;-69
2022/07/27 00:03:17;;;;;;;4.05;1.20;;;18.50;96.50;;;;;;2129451;27;20054;-69
2022/07/27 00:04:18;;;;;;;5.38;1.45;;;18.50;96.40;;;;;;2129032;27;20018;-69
2022/07/27 00:05:19;;;;;;;4.10;0.93;;;18.40;96.70;;;;;;2126532;27;20027;-69
2022/07/27 00:06:19;;;;;;;3.15;0.90;;;18.50;96.70;;;;;;2126167;27;20019;-69
2022/07/27 00:07:20;;;;;;;6.03;1.42;;;18.50;96.70;;;;;;2130511;27;20382;-69
2022/07/27 00:08:22;;;;;;;9.75;1.52;;;18.40;97.00;;;;;;2129387;27;20019;-69
2022/07/27 00:09:23;;;;;;;2.80;1.35;;;18.50;97.20;;;;;;2127503;27;20026;-69
2022/07/27 00:10:24;;;;;;;3.45;1.20;;;18.40;96.90;;;;;;2128323;27;20494;-69
2022/07/27 00:11:24;;;;;;;3.38;1.10;;;18.40;97.00;;;;;;2127835;27;20482;-70
2022/07/27 00:12:25;;;;;;;2.33;0.95;;;18.40;97.40;;;;;;2127483;27;20015;-69
2022/07/27 00:13:26;;;;;;;4.80;1.20;;;18.40;97.10;;;;;;2127506;27;20011;-69
2022/07/27 00:14:26;;;;;;;4.78;0.80;;;18.40;97.60;;;;;;2128394;27;20016;-69
2022/07/27 00:15:27;;;;;;;3.92;1.10;;;18.40;97.20;;;;;;2128918;27;20011;-69
2022/07/27 00:16:28;;;;;;;3.67;1.20;;;18.40;97.50;;;;;;2127622;27;20117;-69
2022/07/27 00:17:28;;;;;;;4.15;1.52;;;18.40;97.50;;;;;;2126905;27;20087;-69
2022/07/27 00:18:29;;;;;;;5.05;1.75;;;18.40;97.50;;;;;;2126732;27;20015;-69
2022/07/27 00:19:30;;;;;;;7.68;1.63;;;18.40;97.30;;;;;;2126301;27;20101;-69
2022/07/27 00:20:31;;;;;;;2.47;1.20;;;18.40;97.60;;;;;;2128729;27;20023;-69
2022/07/27 00:21:31;;;;;;;2.72;1.13;;;18.30;97.50;;;;;;2129020;27;20053;-69
2022/07/27 00:22:32;;;;;;;3.83;1.00;;;18.30;97.80;;;;;;2126822;27;20050;-69
2022/07/27 00:23:33;;;;;;;3.80;1.65;;;18.30;97.40;;;;;;2128008;27;20151;-69
2022/07/27 00:24:33;;;;;;;5.18;1.20;;;18.30;97.90;;;;;;2126921;27;20475;-69
2022/07/27 00:25:34;;;;;;;3.08;1.15;;;18.30;98.20;;;;;;2127778;27;20072;-69
2022/07/27 00:26:35;;;;;;;2.55;1.10;;;18.30;98.40;;;;;;2127141;27;20478;-69
2022/07/27 00:27:35;;;;;;;2.60;1.20;;;18.30;98.40;;;;;;2127527;27;20031;-69
2022/07/27 00:28:36;;;;;;;4.25;1.17;;;18.30;98.30;;;;;;2129166;27;20019;-69
2022/07/27 00:29:37;;;;;;;4.53;1.13;;;18.20;98.30;;;;;;2127867;27;20024;-69
2022/07/27 00:30:37;;;;;;;5.57;1.55;;;18.20;98.70;;;;;;2127454;27;20022;-69
2022/07/27 00:31:38;;;;;;;3.08;1.17;;;18.20;98.60;;;;;;2126877;27;20049;-69
2022/07/27 00:32:38;;;;;;;2.60;1.00;;;18.20;98.80;;;;;;2127447;27;20027;-69
2022/07/27 00:33:39;;;;;;;5.90;1.00;;;18.20;98.70;;;;;;2127212;27;20069;-69
2022/07/27 00:34:40;;;;;;;4.68;1.45;;;18.20;99.10;;;;;;2127804;27;20021;-69
2022/07/27 00:35:41;;;;;;;3.13;1.30;;;18.30;99.10;;;;;;2127252;27;20027;-69
2022/07/27 00:36:41;;;;;;;5.82;1.58;;;18.20;98.70;;;;;;2127196;27;20053;-69
2022/07/27 00:37:42;;;;;;;5.15;1.30;;;18.30;99.20;;;;;;2126743;27;20027;-70
2022/07/27 00:38:42;;;;;;;4.05;1.30;;;18.20;99.40;;;;;;2126562;27;20685;-70
2022/07/27 00:39:43;;;;;;;1.55;1.00;;;18.20;99.70;;;;;;2127922;27;20037;-70
2022/07/27 00:40:43;;;;;;;4.53;1.35;;;18.30;99.60;;;;;;2128841;27;20023;-70
2022/07/27 00:41:45;;;;;;;2.85;1.23;;;18.20;99.00;;;;;;2129126;27;20019;-70
2022/07/27 00:42:45;;;;;;;2.40;1.17;;;18.20;99.40;;;;;;2128067;27;20445;-69
2022/07/27 00:44:12;;;;;;;2.78;1.00;;;18.20;99.20;;;;;;2127529;27;20031;-69
2022/07/27 00:45:13;;;;;;;5.70;1.25;;;18.20;99.90;;;;;;2123261;27;20398;-69
2022/07/27 00:46:13;;;;;;;4.35;1.30;;;18.20;99.90;;;;;;2125164;27;20050;-69
2022/07/27 00:47:14;;;;;;;4.07;1.52;;;18.10;99.90;;;;;;2126343;27;20026;-69
2022/07/27 00:48:15;;;;;;;4.72;1.10;;;18.20;99.90;;;;;;2125906;27;20054;-69
2022/07/27 00:49:15;;;;;;;3.00;1.23;;;18.20;99.90;;;;;;2128940;27;20033;-69
2022/07/27 00:50:16;;;;;;;3.03;1.27;;;18.20;99.90;;;;;;2127893;27;20022;-69
2022/07/27 00:51:18;;;;;;;2.20;1.20;;;18.20;99.90;;;;;;2126819;27;20015;-69
2022/07/27 00:52:20;;;;;;;3.58;1.27;;;18.20;99.90;;;;;;2125606;27;20014;-69
2022/07/27 00:53:21;;;;;;;2.90;1.50;;;18.10;99.90;;;;;;2127523;27;20539;-69
2022/07/27 00:54:22;;;;;;;2.88;1.20;;;18.10;99.90;;;;;;2126183;27;20446;-69
2022/07/27 00:55:24;;;;;;;3.85;1.38;;;18.20;99.90;;;;;;2126487;27;20051;-69
2022/07/27 00:56:24;;;;;;;6.25;1.40;;;18.10;99.90;;;;;;2126176;27;20419;-69
2022/07/27 00:57:26;;;;;;;3.70;1.10;;;18.10;99.90;;;;;;2127957;27;20023;-69
2022/07/27 00:58:28;;;;;;;3.92;1.45;;;18.10;99.90;;;;;;2126799;27;20022;-69
2022/07/27 00:59:29;;;;;;;4.15;1.52;;;18.10;99.90;;;;;;2125966;27;20030;-69
2022/07/27 01:00:29;;;;;;;3.45;1.05;;;18.10;99.90;;;;;;2128821;27;20026;-69
2022/07/27 01:01:30;;;;;;;4.43;1.15;;;18.10;99.90;;;;;;2125055;27;20147;-69
2022/07/27 01:02:31;;;;;;;5.22;1.40;;;18.10;99.90;;;;;;2126844;27;20034;-69
2022/07/27 01:03:31;;;;;;;5.38;1.38;;;18.10;99.90;;;;;;2127840;27;20030;-69
2022/07/27 01:04:32;;;;;;;3.70;1.30;;;18.10;99.90;;;;;;2127411;27;20390;-69
2022/07/27 01:05:35;;;;;;;5.07;1.30;;;18.10;99.90;;;;;;2128284;27;20030;-69
2022/07/27 01:06:36;;;;;;;4.55;1.27;;;18.10;99.90;;;;;;2127151;27;20075;-69
2022/07/27 01:07:37;;;;;;;2.70;1.23;;;18.10;99.90;;;;;;2126945;27;20031;-69
2022/07/27 01:08:38;;;;;;;6.47;1.58;;;18.10;99.90;;;;;;2128887;27;20134;-69
2022/07/27 01:09:57;;;;;;;3.35;1.30;;;18.00;99.90;;;;;;2125066;27;20027;-69
2022/07/27 01:10:58;;;;;;;3.88;1.20;;;18.00;99.90;;;;;;2125965;27;20539;-69
2022/07/27 01:11:58;;;;;;;2.75;1.20;;;18.00;99.90;;;;;;2124610;27;20477;-69
2022/07/27 01:12:59;;;;;;;2.75;1.00;;;18.00;99.90;;;;;;2126068;27;20474;-69
2022/07/27 01:14:00;;;;;;;4.40;1.20;;;18.00;99.90;;;;;;2124627;27;20090;-69
2022/07/27 01:15:00;;;;;;;3.40;1.23;;;18.00;99.90;;;;;;2128128;27;20015;-69
2022/07/27 01:16:06;;;;;;;2.38;1.15;;;18.00;99.90;;;;;;2127040;27;20090;-69
2022/07/27 01:17:07;;;;;;;4.78;1.30;;;18.00;99.90;;;;;;2126742;27;20015;-69
2022/07/27 01:18:37;;;;;;;2.97;1.08;;;18.00;99.90;;;;;;2128544;27;20101;-69
2022/07/27 01:19:38;;;;;;;3.15;1.35;;;18.00;99.90;;;;;;2127689;27;20026;-69
2022/07/27 01:20:40;;;;;;;3.00;1.05;;;18.00;99.90;;;;;;2120486;27;20083;-69
2022/07/27 01:21:41;;;;;;;2.53;1.10;;;18.00;99.90;;;;;;2125503;27;20172;-69
2022/07/27 01:22:41;;;;;;;2.90;0.98;;;18.00;99.90;;;;;;2127330;27;20084;-69
2022/07/27 01:23:42;;;;;;;3.42;1.45;;;17.90;99.90;;;;;;2130899;27;20093;-69
2022/07/27 01:24:42;;;;;;;5.50;1.40;;;18.00;99.90;;;;;;2127084;27;20066;-69
2022/07/27 01:25:43;;;;;;;2.55;1.20;;;18.00;99.90;;;;;;2124701;27;20031;-69
2022/07/27 01:26:44;;;;;;;3.97;1.20;;;17.90;99.90;;;;;;2127132;27;20025;-69
2022/07/27 01:27:44;;;;;;;3.60;1.20;;;18.00;99.90;;;;;;2124324;27;20385;-69
2022/07/27 01:28:46;;;;;;;3.08;1.33;;;18.00;99.90;;;;;;2125108;27;20023;-69
2022/07/27 01:29:47;;;;;;;3.15;1.27;;;17.90;99.90;;;;;;2124922;27;20026;-69
2022/07/27 01:30:48;;;;;;;4.55;1.10;;;17.90;99.90;;;;;;2125213;27;20064;-69
2022/07/27 01:31:48;;;;;;;3.85;1.10;;;17.90;99.90;;;;;;2129666;27;20101;-69
2022/07/27 01:32:49;;;;;;;2.22;1.05;;;17.90;99.90;;;;;;2127998;27;20015;-69
2022/07/27 01:33:51;;;;;;;6.07;1.48;;;17.90;99.90;;;;;;2125892;27;20063;-69
2022/07/27 01:34:52;;;;;;;3.35;1.02;;;17.90;99.90;;;;;;2125572;27;20027;-69
2022/07/27 01:35:56;;;;;;;3.67;1.45;;;17.90;99.90;;;;;;2122206;27;20015;-69
2022/07/27 01:36:56;;;;;;;4.10;1.23;;;17.90;99.90;;;;;;2125693;27;20022;-69
2022/07/27 01:37:57;;;;;;;3.63;1.20;;;17.90;99.90;;;;;;2124522;27;20007;-69
2022/07/27 01:38:58;;;;;;;3.17;1.10;;;17.80;99.90;;;;;;2125178;27;20015;-69
2022/07/27 01:39:59;;;;;;;9.32;2.03;;;17.80;99.90;;;;;;2130294;27;20022;-69
2022/07/27 01:40:59;;;;;;;1.48;1.00;;;17.80;99.90;;;;;;2128041;27;20021;-69
2022/07/27 01:42:00;;;;;;;2.55;1.00;;;17.80;99.90;;;;;;2127439;27;20474;-69
2022/07/27 01:43:01;;;;;;;3.15;1.20;;;17.80;99.90;;;;;;2124483;27;20023;-69
2022/07/27 01:44:02;;;;;;;3.28;1.10;;;17.80;99.90;;;;;;2127045;27;20030;-69
2022/07/27 01:45:03;;;;;;;3.40;1.08;;;17.80;99.90;;;;;;2123882;27;20015;-69
2022/07/27 01:46:04;;;;;;;2.70;1.48;;;17.80;99.90;;;;;;2126585;27;20030;-69
2022/07/27 01:47:04;;;;;;;3.47;1.25;;;17.80;99.90;;;;;;2124385;27;20031;-69
2022/07/27 01:48:05;;;;;;;2.95;1.10;;;17.80;99.90;;;;;;2130715;27;20200;-69
2022/07/27 01:49:06;;;;;;;3.58;1.33;;;17.80;99.90;;;;;;2128027;27;20054;-69
2022/07/27 01:50:07;;;;;;;3.55;1.05;;;17.80;99.90;;;;;;2130675;27;20022;-69
2022/07/27 01:51:08;;;;;;;3.53;1.05;;;17.80;99.90;;;;;;2128836;27;20373;-69
2022/07/27 01:52:08;;;;;;;3.00;1.20;;;17.80;99.90;;;;;;2127372;27;20021;-69
2022/07/27 01:53:09;;;;;;;2.92;1.02;;;17.80;99.90;;;;;;2125998;27;20351;-69
2022/07/27 01:54:10;;;;;;;5.18;1.20;;;17.70;99.90;;;;;;2128750;27;20023;-69
2022/07/27 01:55:11;;;;;;;4.07;1.45;;;17.70;99.90;;;;;;2118671;28;20433;-69
2022/07/27 01:56:13;;;;;;;4.00;1.20;;;17.70;99.90;;;;;;2117461;27;20291;-69
2022/07/27 01:57:13;;;;;;;3.38;1.50;;;17.70;99.90;;;;;;2129171;27;20351;-69
2022/07/27 01:58:14;;;;;;;3.47;1.30;;;17.70;99.90;;;;;;2129639;27;20019;-69
2022/07/27 01:59:14;;;;;;;2.65;1.05;;;17.70;99.90;;;;;;2127653;27;20087;-69
2022/07/27 02:00:15;;;;;;;2.65;1.05;;;17.70;99.90;;;;;;2127758;27;20019;-69
2022/07/27 02:01:16;;;;;;;2.05;1.00;;;17.70;99.90;;;;;;2128561;27;20018;-69
2022/07/27 02:02:16;;;;;;;4.38;1.27;;;17.60;99.90;;;;;;2127082;27;20054;-69
2022/07/27 02:03:17;;;;;;;4.30;1.33;;;17.60;99.90;;;;;;2126845;27;20019;-69
2022/07/27 02:04:18;;;;;;;3.10;1.30;;;17.60;99.90;;;;;;2126938;27;20023;-69
2022/07/27 02:05:19;;;;;;;3.05;1.20;;;17.60;99.90;;;;;;2126895;27;20030;-69
2022/07/27 02:06:19;;;;;;;2.78;1.10;;;17.60;99.90;;;;;;2128684;27;20363;-69
2022/07/27 02:07:20;;;;;;;3.85;1.13;;;17.60;99.90;;;;;;2127385;27;20014;-69
2022/07/27 02:08:20;;;;;;;2.97;1.10;;;17.60;99.90;;;;;;2128213;27;20019;-69
2022/07/27 02:09:24;;;;;;;4.28;1.15;;;17.50;99.90;;;;;;2126889;27;20029;-69
2022/07/27 02:10:25;;;;;;;2.33;1.38;;;17.50;99.90;;;;;;2126880;27;20360;-69
2022/07/27 02:12:45;;;;;;;1.88;0.82;;;17.50;99.90;;;;;;2126832;27;20015;-69
2022/07/27 02:13:47;;;;;;;3.03;1.20;;;17.40;99.90;;;;;;2126730;27;20018;-69
2022/07/27 02:14:48;;;;;;;3.75;1.20;;;17.40;99.90;;;;;;2124690;27;20034;-69
2022/07/27 02:15:49;;;;;;;2.67;1.08;;;17.40;99.90;;;;;;2129206;27;20500;-69
2022/07/27 02:16:49;;;;;;;3.70;1.40;;;17.40;99.90;;;;;;2126220;27;20103;-69
2022/07/27 02:17:50;;;;;;;2.08;1.00;;;17.40;99.90;;;;;;2127991;27;20026;-69
2022/07/27 02:18:51;;;;;;;2.83;1.20;;;17.40;99.90;;;;;;2128496;27;20055;-69
2022/07/27 02:19:52;;;;;;;4.50;1.50;;;17.30;99.90;;;;;;2125576;27;20027;-69
2022/07/27 02:20:52;;;;;;;3.17;1.25;;;17.30;99.90;;;;;;2127474;27;20074;-69
2022/07/27 02:21:53;;;;;;;2.65;1.52;;;17.30;99.90;;;;;;2126709;27;20023;-69
2022/07/27 02:22:54;;;;;;;4.47;1.88;;;17.30;99.90;;;;;;2129078;27;20129;-69
2022/07/27 02:23:54;;;;;;;1.88;1.27;;;17.30;99.90;;;;;;2129378;27;20026;-69
2022/07/27 02:24:55;;;;;;;4.90;1.20;;;17.20;99.90;;;;;;2128466;27;20490;-69
2022/07/27 02:25:56;;;;;;;5.90;1.50;;;17.20;99.90;;;;;;2123936;27;20027;-69
2022/07/27 02:26:57;;;;;;;4.63;1.63;;;17.20;99.90;;;;;;2124053;27;20387;-69
2022/07/27 02:27:57;;;;;;;4.55;1.60;;;17.20;99.90;;;;;;2126493;27;20084;-69
2022/07/27 02:28:58;;;;;;;2.50;1.00;;;17.20;99.90;;;;;;2126897;27;20029;-69
2022/07/27 02:29:59;;;;;;;5.03;1.85;;;17.10;99.90;;;;;;2127029;27;20575;-69
2022/07/27 02:30:59;;;;;;;3.78;1.33;;;17.10;99.90;;;;;;2126472;27;20019;-69
2022/07/27 02:32:00;;;;;;;3.17;1.48;;;17.10;99.90;;;;;;2118881;28;20016;-69
2022/07/27 02:33:02;;;;;;;2.35;1.23;;;17.10;99.90;;;;;;2116349;28;20020;-69
2022/07/27 02:34:02;;;;;;;4.25;1.40;;;17.10;99.90;;;;;;2130394;27;20034;-69
2022/07/27 02:35:03;;;;;;;2.30;1.17;;;17.00;99.90;;;;;;2126777;27;20057;-69
2022/07/27 02:36:04;;;;;;;2.50;1.17;;;17.00;99.90;;;;;;2119727;27;20023;-69
2022/07/27 02:37:05;;;;;;;2.13;1.10;;;17.00;99.90;;;;;;2120599;27;20051;-69
2022/07/27 02:38:05;;;;;;;2.83;1.20;;;17.00;99.90;;;;;;2129819;27;20486;-69
2022/07/27 02:39:06;;;;;;;2.97;1.23;;;17.00;99.90;;;;;;2130290;27;20500;-69
2022/07/27 02:40:07;;;;;;;5.38;1.23;;;17.00;99.90;;;;;;2128383;27;20046;-69
2022/07/27 02:41:07;;;;;;;3.22;1.10;;;17.00;99.90;;;;;;2129173;27;20015;-69
2022/07/27 02:42:08;;;;;;;1.80;1.10;;;16.90;99.90;;;;;;2130923;27;20079;-69
2022/07/27 02:43:09;;;;;;;3.05;1.23;;;16.90;99.90;;;;;;2130576;27;20489;-69
2022/07/27 02:44:09;;;;;;;3.92;1.23;;;16.90;99.90;;;;;;2118671;27;20615;-69
2022/07/27 02:45:10;;;;;;;1.90;1.02;;;16.90;99.90;;;;;;2120229;27;20103;-69
2022/07/27 02:46:10;;;;;;;1.40;1.10;;;16.90;99.90;;;;;;2127566;27;20174;-69
2022/07/27 02:47:11;;;;;;;2.63;1.40;;;16.90;99.90;;;;;;2128733;27;20301;-69
2022/07/27 02:48:12;;;;;;;3.60;1.38;;;16.80;99.90;;;;;;2128500;27;20056;-69
2022/07/27 02:49:12;;;;;;;1.98;1.20;;;16.80;99.90;;;;;;2127735;27;20015;-69
2022/07/27 02:50:13;;;;;;;4.50;1.45;;;16.80;99.90;;;;;;2130646;27;20021;-69
2022/07/27 02:51:13;;;;;;;3.90;1.20;;;16.80;99.90;;;;;;2122516;27;20648;-69
2022/07/27 02:52:14;;;;;;;2.47;1.17;;;16.80;99.90;;;;;;2121307;27;20626;-69
2022/07/27 02:53:15;;;;;;;4.15;1.48;;;16.70;99.90;;;;;;2128736;27;20042;-69
2022/07/27 02:54:15;;;;;;;2.58;1.23;;;16.70;99.90;;;;;;2128702;27;20050;-69
2022/07/27 02:55:16;;;;;;;2.55;1.42;;;16.70;99.90;;;;;;2126977;27;20038;-69
2022/07/27 02:56:16;;;;;;;2.70;1.13;;;16.60;99.90;;;;;;2126132;27;20083;-69
2022/07/27 02:57:17;;;;;;;2.50;1.40;;;16.70;99.90;;;;;;2126341;27;20011;-69
2022/07/27 02:58:18;;;;;;;3.22;1.02;;;16.70;99.90;;;;;;2129149;27;20023;-69
2022/07/27 02:59:19;;;;;;;2.75;1.30;;;16.60;99.90;;;;;;2129093;27;20030;-69
2022/07/27 03:00:20;;;;;;;1.50;1.27;;;16.60;99.90;;;;;;2129302;27;20144;-69
2022/07/27 03:01:21;;;;;;;2.45;1.17;;;16.60;99.90;;;;;;2127359;27;20026;-69
2022/07/27 03:02:21;;;;;;;2.35;1.10;;;16.60;99.90;;;;;;2129194;27;20030;-69
2022/07/27 03:03:22;;;;;;;2.58;1.42;;;16.60;99.90;;;;;;2127834;27;20030;-69
2022/07/27 03:04:22;;;;;;;3.20;1.33;;;16.50;99.90;;;;;;2126786;27;20094;-69
2022/07/27 03:05:23;;;;;;;1.55;1.02;;;16.50;99.90;;;;;;2129512;27;20019;-69
2022/07/27 03:06:24;;;;;;;1.90;1.40;;;16.50;99.90;;;;;;2127947;27;20050;-69
2022/07/27 03:07:24;;;;;;;2.67;1.17;;;16.50;99.90;;;;;;2127348;27;20019;-69
2022/07/27 03:08:25;;;;;;;3.35;1.30;;;16.50;99.90;;;;;;2131304;27;20773;-69
2022/07/27 03:09:26;;;;;;;2.50;1.10;;;16.40;99.90;;;;;;2125074;27;20095;-69
2022/07/27 03:10:26;;;;;;;2.83;1.17;;;16.40;99.90;;;;;;2125898;27;20473;-69
2022/07/27 03:11:27;;;;;;;4.88;1.38;;;16.40;99.90;;;;;;2127231;27;20027;-69
2022/07/27 03:12:28;;;;;;;5.22;1.42;;;16.40;99.90;;;;;;2129129;27;20014;-69
2022/07/27 03:13:29;;;;;;;3.45;1.10;;;16.40;99.90;;;;;;2130125;27;20019;-69
2022/07/27 03:14:29;;;;;;;4.85;1.05;;;16.40;99.90;;;;;;2127253;27;20094;-69
2022/07/27 03:15:33;;;;;;;2.58;1.33;;;16.40;99.90;;;;;;2129379;27;20471;-69
2022/07/27 03:16:34;;;;;;;2.03;1.00;;;16.40;99.90;;;;;;2127926;27;20386;-69
2022/07/27 03:17:34;;;;;;;1.85;1.17;;;16.40;99.90;;;;;;2126911;27;20054;-69
2022/07/27 03:18:35;;;;;;;2.95;0.90;;;16.40;99.90;;;;;;2127710;27;20026;-69
2022/07/27 03:19:35;;;;;;;2.33;1.25;;;16.40;99.90;;;;;;2128958;27;20050;-69
2022/07/27 03:20:36;;;;;;;3.13;1.20;;;16.40;99.90;;;;;;2127683;27;20434;-69
2022/07/27 03:21:37;;;;;;;4.00;1.40;;;16.40;99.90;;;;;;2126155;27;20018;-69
2022/07/27 03:22:38;;;;;;;1.52;1.00;;;16.40;99.90;;;;;;2127416;27;20506;-69
2022/07/27 03:23:38;;;;;;;4.00;1.52;;;16.40;99.90;;;;;;2129115;27;20390;-69
2022/07/27 03:24:39;;;;;;;1.92;1.20;;;16.40;99.90;;;;;;2129081;27;20026;-69
2022/07/27 03:25:39;;;;;;;3.65;1.30;;;16.40;99.90;;;;;;2126419;27;20027;-69
2022/07/27 03:26:40;;;;;;;4.85;1.98;;;16.40;99.90;;;;;;2127639;27;20031;-69
2022/07/27 03:27:40;;;;;;;3.83;1.52;;;16.40;99.90;;;;;;2126653;27;20033;-69
2022/07/27 03:28:41;;;;;;;4.13;1.05;;;16.30;99.90;;;;;;2128189;27;20078;-69
2022/07/27 03:29:42;;;;;;;2.60;0.80;;;16.40;99.90;;;;;;2125907;27;20080;-69
2022/07/27 03:30:42;;;;;;;2.72;1.10;;;16.40;99.90;;;;;;2127749;27;20015;-69
2022/07/27 03:31:44;;;;;;;1.33;1.02;;;16.40;99.90;;;;;;2128478;27;20015;-69
2022/07/27 03:32:44;;;;;;;3.45;1.45;;;16.30;99.90;;;;;;2130163;27;20022;-69
2022/07/27 03:33:45;;;;;;;2.13;0.98;;;16.30;99.90;;;;;;2127591;27;20481;-69
2022/07/27 03:34:46;;;;;;;2.85;1.20;;;16.40;99.90;;;;;;2129346;27;20019;-69
2022/07/27 03:35:46;;;;;;;2.25;1.20;;;16.40;99.90;;;;;;2125821;27;20015;-69
2022/07/27 03:36:47;;;;;;;3.08;1.20;;;16.30;99.90;;;;;;2125114;27;20027;-69
2022/07/27 03:37:47;;;;;;;2.17;1.30;;;16.30;99.90;;;;;;2126604;27;20015;-69
2022/07/27 03:38:48;;;;;;;1.65;1.00;;;16.40;99.90;;;;;;2130172;27;20086;-69
2022/07/27 03:39:48;;;;;;;2.70;1.30;;;16.30;99.90;;;;;;2127556;27;20101;-69
2022/07/27 03:40:49;;;;;;;2.58;1.30;;;16.30;99.90;;;;;;2130071;27;20026;-69
2022/07/27 03:41:50;;;;;;;3.20;1.90;;;16.30;99.90;;;;;;2127101;27;20105;-69
2022/07/27 03:42:50;;;;;;;5.07;1.42;;;16.30;99.90;;;;;;2128509;27;20109;-69
2022/07/27 03:43:51;;;;;;;4.25;1.27;;;16.30;99.90;;;;;;2126430;27;20054;-69
2022/07/27 03:44:52;;;;;;;3.15;1.10;;;16.30;99.90;;;;;;2127661;27;20034;-69
2022/07/27 03:45:53;;;;;;;3.92;1.35;;;16.30;99.90;;;;;;2126237;27;20023;-69
2022/07/27 03:46:53;;;;;;;7.00;1.50;;;16.30;99.90;;;;;;2127702;27;20046;-69
2022/07/27 03:47:54;;;;;;;4.03;1.30;;;16.30;99.90;;;;;;2126946;27;20381;-69
2022/07/27 03:48:56;;;;;;;3.92;1.13;;;16.30;99.90;;;;;;2120811;27;20015;-69
2022/07/27 03:49:57;;;;;;;2.22;0.90;;;16.30;99.90;;;;;;2122622;27;20470;-69
2022/07/27 03:50:57;;;;;;;2.40;1.33;;;16.30;99.90;;;;;;2129554;27;20432;-69
2022/07/27 03:51:58;;;;;;;6.07;1.67;;;16.30;99.90;;;;;;2124368;27;20020;-69
2022/07/27 03:52:58;;;;;;;3.45;1.00;;;16.20;99.90;;;;;;2126312;27;20031;-69
2022/07/27 03:53:59;;;;;;;3.10;1.20;;;16.20;99.90;;;;;;2127360;27;20485;-69
2022/07/27 03:55:00;;;;;;;3.28;1.25;;;16.20;99.90;;;;;;2126113;27;20016;-69
2022/07/27 03:56:00;;;;;;;4.90;1.35;;;16.20;99.90;;;;;;2126747;27;20019;-70
2022/07/27 03:57:01;;;;;;;2.03;1.45;;;16.20;99.90;;;;;;2128626;27;20029;-70
2022/07/27 03:58:02;;;;;;;2.95;1.10;;;16.20;99.90;;;;;;2128013;27;20966;-69
2022/07/27 03:59:02;;;;;;;2.13;1.23;;;16.20;99.90;;;;;;2129892;27;20076;-69
2022/07/27 04:00:04;;;;;;;3.45;1.40;;;16.10;99.90;;;;;;2130693;27;20386;-69
2022/07/27 04:01:04;;;;;;;3.17;1.25;;;16.10;99.90;;;;;;2128079;27;20019;-69
2022/07/27 04:02:05;;;;;;;1.30;1.10;;;16.10;99.90;;;;;;2124810;27;20281;-69
2022/07/27 04:03:06;;;;;;;3.38;1.20;;;16.10;99.90;;;;;;2125769;27;20551;-69
2022/07/27 04:04:07;;;;;;;2.25;1.20;;;16.10;99.90;;;;;;2125763;27;20023;-69
2022/07/27 04:05:08;;;;;;;2.58;1.50;;;16.10;99.90;;;;;;2129008;27;20019;-69
2022/07/27 04:06:08;;;;;;;8.35;1.40;;;16.10;99.90;;;;;;2126897;27;20386;-69
2022/07/27 04:07:09;;;;;;;4.07;1.50;;;16.00;99.90;;;;;;2129384;27;20043;-69
2022/07/27 04:08:10;;;;;;;3.30;1.30;;;16.10;99.90;;;;;;2129684;27;20037;-69
2022/07/27 04:09:10;;;;;;;3.28;1.50;;;16.00;99.90;;;;;;2129076;27;20054;-69
2022/07/27 04:10:11;;;;;;;3.47;1.67;;;16.00;99.90;;;;;;2125293;27;20038;-69
2022/07/27 04:11:12;;;;;;;3.83;1.50;;;16.00;99.90;;;;;;2125771;27;20027;-69
2022/07/27 04:12:12;;;;;;;3.30;1.08;;;16.00;99.90;;;;;;2127194;27;20553;-69
2022/07/27 04:13:13;;;;;;;3.17;1.40;;;16.00;99.90;;;;;;2128124;27;20045;-69
2022/07/27 04:14:14;;;;;;;6.03;1.63;;;16.00;99.90;;;;;;2126995;27;20015;-69
2022/07/27 04:15:17;;;;;;;4.40;1.38;;;16.00;99.90;;;;;;2127607;27;20102;-69
2022/07/27 04:16:18;;;;;;;4.07;1.58;;;15.90;99.90;;;;;;2128921;27;20520;-69
2022/07/27 04:17:19;;;;;;;4.03;1.40;;;15.90;99.90;;;;;;2129252;27;20386;-69
2022/07/27 04:18:19;;;;;;;1.55;1.13;;;15.90;99.90;;;;;;2115379;27;20020;-69
2022/07/27 04:19:20;;;;;;;7.75;1.80;;;15.90;99.90;;;;;;2115479;27;20023;-69
2022/07/27 04:20:20;;;;;;;4.03;1.30;;;15.90;99.90;;;;;;2126622;27;20088;-69
2022/07/27 04:21:21;;;;;;;1.92;1.20;;;15.90;99.90;;;;;;2126346;27;20484;-69
2022/07/27 04:22:22;;;;;;;4.65;2.00;;;15.90;99.90;;;;;;2125481;27;20026;-69
2022/07/27 04:23:22;;;;;;;3.13;1.38;;;15.90;99.90;;;;;;2127588;27;20361;-69
2022/07/27 04:24:23;;;;;;;5.07;1.70;;;15.80;99.90;;;;;;2129430;27;20023;-69
2022/07/27 04:25:23;;;;;;;2.28;1.30;;;15.80;99.90;;;;;;2127879;27;20036;-69
2022/07/27 04:26:24;;;;;;;2.88;1.30;;;15.80;99.90;;;;;;2126691;27;20076;-69
2022/07/27 04:27:25;;;;;;;5.15;1.38;;;15.80;99.90;;;;;;2125151;27;20030;-69
2022/07/27 04:28:26;;;;;;;3.70;1.50;;;15.80;99.90;;;;;;2124949;27;20053;-69
2022/07/27 04:29:26;;;;;;;1.90;1.42;;;15.80;99.90;;;;;;2126389;27;20488;-69
2022/07/27 04:30:27;;;;;;;2.17;1.20;;;15.80;99.90;;;;;;2123606;27;20015;-69
2022/07/27 04:31:27;;;;;;;5.20;1.60;;;15.80;99.90;;;;;;2127981;27;20089;-69
2022/07/27 04:32:28;;;;;;;2.60;1.40;;;15.80;99.90;;;;;;2130177;27;20484;-69
2022/07/27 04:33:30;;;;;;;1.63;1.20;;;15.80;99.90;;;;;;2130562;27;20023;-69
2022/07/27 04:34:30;;;;;;;4.05;1.70;;;15.80;99.90;;;;;;2128866;27;20027;-69
2022/07/27 04:35:31;;;;;;;3.60;1.50;;;15.80;99.90;;;;;;2128970;27;20026;-69
2022/07/27 04:36:32;;;;;;;3.90;1.73;;;15.80;99.90;;;;;;2127115;27;20030;-69
2022/07/27 04:37:32;;;;;;;3.67;1.50;;;15.80;99.90;;;;;;2129483;27;20097;-69
2022/07/27 04:38:33;;;;;;;3.42;1.50;;;15.80;99.90;;;;;;2128422;27;20093;-69
2022/07/27 04:39:34;;;;;;;3.65;1.70;;;15.80;99.90;;;;;;2129220;27;20022;-69
2022/07/27 04:40:34;;;;;;;4.85;2.00;;;15.80;99.90;;;;;;2126472;27;20042;-69
2022/07/27 04:41:35;;;;;;;3.95;1.60;;;15.80;99.90;;;;;;2129758;27;20375;-69
2022/07/27 04:42:36;;;;;;;4.10;1.55;;;15.80;99.90;;;;;;2129861;27;20386;-69
2022/07/27 04:43:36;;;;;;;1.75;1.52;;;15.80;99.90;;;;;;2130726;27;20042;-69
2022/07/27 04:44:37;;;;;;;3.33;1.77;;;15.90;99.90;;;;;;2124498;27;20107;-69
2022/07/27 04:45:38;;;;;;;1.95;1.55;;;16.00;99.90;;;;;;2125808;27;20102;-69
2022/07/27 04:46:38;;;;;;;5.10;1.88;;;16.00;99.90;;;;;;2127747;27;20117;-69
2022/07/27 04:47:39;;;;;;;3.45;1.75;;;16.10;99.90;;;;;;2126526;27;20043;-69
2022/07/27 04:48:40;;;;;;;3.72;1.70;;;16.10;99.90;;;;;;2125841;27;20042;-70
2022/07/27 04:49:40;;;;;;;5.95;2.00;;;16.10;99.90;;;;;;2127489;27;20027;-69
2022/07/27 04:50:42;;;;;;;5.60;2.08;;;16.10;99.90;;;;;;2127358;27;20106;-69
2022/07/27 04:51:44;;;;;;;2.65;1.60;;;16.10;99.90;;;;;;2128718;27;20030;-69
2022/07/27 04:52:44;;;;;;;7.53;1.88;;;16.20;99.90;;;;;;2119213;27;20110;-69
2022/07/27 04:53:45;;;;;;;2.88;1.65;;;16.20;99.90;;;;;;2120062;27;20015;-69
2022/07/27 04:54:50;;;;;;;5.38;1.88;;;16.20;99.90;;;;;;2128187;27;20022;-69
2022/07/27 04:55:51;;;;;;;5.10;1.92;;;16.30;99.90;;;;;;2127180;27;20026;-69
2022/07/27 04:56:51;;;;;;;4.63;1.60;;;16.30;99.90;;;;;;2126746;27;20509;-69
2022/07/27 04:57:52;;;;;;;3.53;1.80;;;16.40;99.90;;;;;;2125903;27;20019;-69
2022/07/27 04:58:53;;;;;;;3.72;1.80;;;16.40;99.90;;;;;;2129187;27;20622;-69
2022/07/27 04:59:54;;;;;;;3.40;1.70;;;16.50;99.90;;;;;;2128007;27;20432;-69
2022/07/27 05:00:54;;;;;;;2.58;1.65;;;16.50;99.90;;;;;;2127821;27;20101;-69
2022/07/27 05:01:55;;;;;;;4.05;1.80;;;16.50;99.90;;;;;;2126834;27;20027;-69
2022/07/27 05:02:55;;;;;;;4.43;1.70;;;16.60;99.90;;;;;;2125476;27;20493;-69
2022/07/27 05:03:56;;;;;;;3.42;1.80;;;16.60;99.90;;;;;;2127111;27;20020;-69
2022/07/27 05:04:59;;;;;;;3.58;2.00;;;16.70;99.90;;;;;;2128738;27;20041;-70
2022/07/27 05:05:59;;;;;;;6.00;1.90;;;16.80;99.90;;;;;;2125365;27;20026;-69
2022/07/27 05:07:00;;;;;;;2.83;1.73;;;16.90;99.90;;;;;;2128908;27;20019;-69
2022/07/27 05:08:01;;;;;;;4.45;2.00;;;16.90;99.90;;;;;;2127191;27;20053;-69
2022/07/27 05:09:02;;;;;;;5.97;1.75;;;17.00;99.90;;;;;;2130374;27;20166;-69
2022/07/27 05:10:03;;;;;;;4.60;1.65;;;17.10;99.90;;;;;;2130418;27;20037;-70
2022/07/27 05:11:04;;;;;;;4.85;2.10;;;17.20;99.90;;;;;;2125460;27;20050;-70
2022/07/27 05:12:05;;;;;;;3.67;1.70;;;17.20;99.90;;;;;;2126131;27;20026;-70
2022/07/27 05:13:05;;;;;;;5.60;2.05;;;17.30;99.90;;;;;;2127003;27;20098;-70
2022/07/27 05:14:06;;;;;;;3.20;1.83;;;17.40;99.90;;;;;;2126790;27;20101;-70
2022/07/27 05:15:07;;;;;;;5.28;2.22;;;17.50;99.90;;;;;;2127861;27;20022;-70
2022/07/27 05:16:09;;;;;;;4.72;2.10;;;17.60;99.90;;;;;;2126433;27;20021;-70
2022/07/27 05:17:10;;;;;;;3.78;1.88;;;17.60;99.90;;;;;;2126054;27;20018;-70
2022/07/27 05:18:10;;;;;;;4.25;1.95;;;17.70;99.90;;;;;;2127533;27;20030;-70
2022/07/27 05:19:11;;;;;;;3.45;2.20;;;17.80;99.90;;;;;;2125391;27;20106;-70